Terminal Aerodrome Forecast
Issued by NWS

Home | Current Version | Previous Version | Text Only | Print | Product List | Glossary On
Versions: 1 2 3 4 5 6 7 8 9 10 11 12 13 14 15 16 17 18 19 20 21 22 23 24 25 26 27 28
000
FTUS46 KOTX 270833 AAC
TAFCOE
TAF AMD
KCOE 270833Z 2709/2806 00000KT 3SM BR BCFG OVC003
      TEMPO 2709/2712 1/2SM FZFG
     FM271200 33005KT 1SM BR OVC003
     FM271700 25005KT 5SM BR VCSH BKN015 OVC030
     FM271900 25005KT 3SM -SN OVC020=

USA.gov is the U.S. government's official web portal to all federal, state and local government web resources and services.